»·PEaware :: N850VJ KSJC-KLAX

N850VJ :: KSJC-KLAX

FLIGHT INFORMATION

Flight Status: Arrived
Operator: Privately registered:
United States
More flights under this callsign
Pilot: Andrew J. (13363)
Aircraft: SOCATA TBM-900
(TBM9)
More flights by this aircraft type
Origin: KSJC Mineta San Jose Intl
United States
Destination: KLAX Los Angeles Intl
United States
More flights between these airports :: More routes between these airports
Route: +TECKY3 LOSHN EHF KIMMO3
File this flight plan on PilotEdge
Remarks:
Altitude:
(Current/Filed)
31,000ft
Speed:
(Current/Filed)
310kts
Departed: 12-Feb-18 08:32 PM
Arrived: 12-Feb-18 09:42 PM
Distance/Time
Traveled:
268nm/1:10
Distance/Time
To Go:
Arrived

Flight Plot

Page will automatically refresh every two minutes.

Flight plan parsing failed; only flown route is shown


Map Options




Map Legend


Flown Route
Filed Route
Departure Airport
Arrival Airport
Navaid (VOR, NDB)
Fix

Horizontal Profiles

Position Reports

Time Latitude Longitude Heading Altitude Ground
Speed
12-Feb-18 20:26 37.352656 -121.921609 48 46ft 0kts
12-Feb-18 20:27 37.352656 -121.921609 48 46ft 0kts
12-Feb-18 20:28 37.352656 -121.921609 48 46ft 0kts
12-Feb-18 20:29 37.352656 -121.921609 48 46ft 0kts
12-Feb-18 20:30 37.352656 -121.921609 48 46ft 0kts
12-Feb-18 20:31 37.352656 -121.921609 48 46ft 0kts
12-Feb-18 20:32 37.352656 -121.921609 48 46ft 0kts
12-Feb-18 20:33 37.352656 -121.921609 48 46ft 0kts
12-Feb-18 20:34 37.352656 -121.921609 48 46ft 0kts
12-Feb-18 20:35 37.352656 -121.921609 48 46ft 0kts
12-Feb-18 20:36 37.352799 -121.921313 78 46ft 7kts
12-Feb-18 20:37 37.352179 -121.919710 53 46ft 0kts
12-Feb-18 20:38 37.353319 -121.919623 317 46ft 16kts
12-Feb-18 20:39 37.369201 -121.937176 317 565ft 128kts
12-Feb-18 20:40 37.394967 -121.926406 95 2395ft 145kts
12-Feb-18 20:41 37.373254 -121.886925 119 4039ft 148kts
12-Feb-18 20:42 37.359938 -121.839695 127 5598ft 152kts
12-Feb-18 20:43 37.334100 -121.797232 128 7447ft 160kts
12-Feb-18 20:44 37.300656 -121.756794 133 9426ft 172kts
12-Feb-18 20:45 37.265432 -121.716880 130 11323ft 175kts
12-Feb-18 20:46 37.228625 -121.675029 129 12971ft 183kts
12-Feb-18 20:47 37.190170 -121.631377 128 14465ft 192kts
12-Feb-18 20:48 37.149439 -121.585227 128 16286ft 202kts
12-Feb-18 20:49 37.106823 -121.537002 127 17984ft 213kts
12-Feb-18 20:50 37.067393 -121.493195 122 20526ft 156kts
12-Feb-18 20:51 37.042213 -121.457370 139 22327ft 140kts
12-Feb-18 20:52 37.011351 -121.414484 150 23012ft 205kts
12-Feb-18 20:53 36.964344 -121.353000 132 23669ft 272kts
12-Feb-18 20:54 36.916116 -121.288721 120 25882ft 253kts
12-Feb-18 20:55 36.872582 -121.228665 121 27145ft 264kts
12-Feb-18 20:56 36.822709 -121.160267 122 28482ft 270kts
12-Feb-18 20:57 36.771705 -121.090598 122 29838ft 276kts
12-Feb-18 20:58 36.728167 -121.031312 123 30860ft 281kts
12-Feb-18 20:59 36.671730 -120.954568 125 31035ft 321kts
12-Feb-18 21:00 36.592985 -120.860005 130 31026ft 349kts
12-Feb-18 21:01 36.533757 -120.790787 130 31022ft 357kts
12-Feb-18 21:02 36.460823 -120.705812 130 30995ft 360kts
12-Feb-18 21:03 36.388235 -120.621480 130 30996ft 359kts
12-Feb-18 21:04 36.315530 -120.537227 130 30997ft 358kts
12-Feb-18 21:05 36.247659 -120.458774 130 30999ft 359kts
12-Feb-18 21:06 36.180707 -120.381575 130 31000ft 359kts
12-Feb-18 21:07 36.112057 -120.302605 131 30999ft 359kts
12-Feb-18 21:08 36.039264 -120.219111 131 31001ft 360kts
12-Feb-18 21:09 35.965717 -120.134973 131 31002ft 360kts
12-Feb-18 21:10 35.895712 -120.055090 131 30999ft 360kts
12-Feb-18 21:11 35.846545 -119.990064 110 30991ft 344kts
12-Feb-18 21:12 35.804148 -119.885800 107 30989ft 341kts
12-Feb-18 21:13 35.746713 -119.792058 130 30993ft 357kts
12-Feb-18 21:14 35.674410 -119.708677 131 30988ft 358kts
12-Feb-18 21:15 35.601657 -119.623244 140 30621ft 375kts
12-Feb-18 21:16 35.528034 -119.538935 139 29069ft 408kts
12-Feb-18 21:17 35.443959 -119.442446 139 27354ft 419kts
12-Feb-18 21:18 35.363252 -119.349867 140 25699ft 415kts
12-Feb-18 21:19 35.284405 -119.259459 140 23963ft 403kts
12-Feb-18 21:20 35.208617 -119.172804 140 22278ft 396kts
12-Feb-18 21:21 35.134013 -119.087647 140 20607ft 391kts
12-Feb-18 21:22 35.056589 -118.999443 140 18908ft 381kts
12-Feb-18 21:23 34.987910 -118.921346 140 17290ft 369kts
12-Feb-18 21:24 34.914300 -118.837889 140 15558ft 359kts
12-Feb-18 21:25 34.863401 -118.780232 140 14438ft 351kts
12-Feb-18 21:26 34.796610 -118.704827 140 13050ft 338kts
12-Feb-18 21:27 34.730211 -118.630037 139 11715ft 327kts
12-Feb-18 21:28 34.660062 -118.581108 153 10509ft 293kts
12-Feb-18 21:29 34.594402 -118.529068 113 8601ft 290kts
12-Feb-18 21:30 34.548082 -118.468563 159 7967ft 259kts
12-Feb-18 21:31 34.484917 -118.436905 159 7967ft 253kts
12-Feb-18 21:32 34.421095 -118.404558 159 7967ft 251kts
12-Feb-18 21:33 34.361710 -118.375508 157 7115ft 257kts
12-Feb-18 21:34 34.310366 -118.349448 156 6340ft 256kts
12-Feb-18 21:35 34.266184 -118.326487 154 5961ft 244kts
12-Feb-18 21:36 34.219018 -118.301540 154 5963ft 228kts
12-Feb-18 21:37 34.172838 -118.276612 155 5801ft 229kts
12-Feb-18 21:38 34.127298 -118.252653 156 5264ft 222kts
12-Feb-18 21:39 34.085149 -118.230550 156 4680ft 204kts
12-Feb-18 21:40 34.043185 -118.219501 173 4285ft 191kts
12-Feb-18 21:41 34.003995 -118.214294 172 3756ft 189kts
12-Feb-18 21:42 33.968833 -118.233928 239 3288ft 168kts
12-Feb-18 21:43 33.962200 -118.273268 269 2582ft 158kts
12-Feb-18 21:44 33.960121 -118.313706 268 1598ft 137kts
12-Feb-18 21:45 33.957712 -118.344625 267 1098ft 100kts
12-Feb-18 21:46 33.955311 -118.369994 267 658ft 90kts
12-Feb-18 21:47 33.953094 -118.391170 266 313ft 87kts
12-Feb-18 21:48 33.950816 -118.413846 262 106ft 50kts
12-Feb-18 21:49 33.949486 -118.416805 130 106ft 4kts
12-Feb-18 21:50 33.949003 -118.416127 139 106ft 9kts
12-Feb-18 21:51 33.947529 -118.414347 251 106ft 7kts
12-Feb-18 21:52 33.947314 -118.416693 262 106ft 11kts
12-Feb-18 21:53 33.944962 -118.417892 172 106ft 15kts
12-Feb-18 21:54 33.941883 -118.417448 170 106ft 15kts
12-Feb-18 21:55 33.938854 -118.416985 174 106ft 9kts
12-Feb-18 21:56 33.937904 -118.415649 84 106ft 13kts
12-Feb-18 21:57 33.937829 -118.412431 176 106ft 11kts
12-Feb-18 21:58 33.935791 -118.412500 174 106ft 11kts
12-Feb-18 21:59 33.933127 -118.411887 113 106ft 10kts
12-Feb-18 22:00 33.933244 -118.409925 83 106ft 6kts
12-Feb-18 22:01 33.933432 -118.408114 82 106ft 7kts
12-Feb-18 22:02 33.933644 -118.405884 83 106ft 10kts
12-Feb-18 22:03 33.933966 -118.402829 82 106ft 13kts

Navigation Log

Ident Type
Flight plan parsing failed, navigation log unavailable